createdAt,value
2019-02-18T00:02:12.905Z,60.14
2019-02-18T00:04:44.230Z,60.27
2019-02-18T00:07:14.998Z,60.54
2019-02-18T00:09:45.391Z,60.72
2019-02-18T00:12:17.093Z,60.97
2019-02-18T00:14:47.269Z,60.91
2019-02-18T00:17:17.509Z,61.02
2019-02-18T00:19:47.671Z,61.32
2019-02-18T00:22:17.869Z,61.45
2019-02-18T00:24:48.007Z,61.14
2019-02-18T00:27:18.228Z,61.11
2019-02-18T00:29:48.423Z,60.64
2019-02-18T00:32:21.123Z,60.50
2019-02-18T00:34:51.271Z,60.18
2019-02-18T00:37:24.496Z,60.04
2019-02-18T00:39:53.622Z,59.85
2019-02-18T00:42:24.500Z,59.78
2019-02-18T00:44:54.798Z,59.57
2019-02-18T00:47:24.998Z,59.44
2019-02-18T00:49:56.226Z,59.53
2019-02-18T00:52:27.617Z,60.02
2019-02-18T00:54:57.761Z,59.55
2019-02-18T00:57:27.930Z,59.34
2019-02-18T00:59:58.117Z,58.94
2019-02-18T01:02:28.439Z,58.49
2019-02-18T01:04:58.609Z,58.34
2019-02-18T01:07:34.726Z,58.37
2019-02-18T01:10:00.566Z,58.33
2019-02-18T01:12:30.980Z,58.29
2019-02-18T01:15:01.113Z,58.29
2019-02-18T01:17:31.585Z,58.47
2019-02-18T01:20:01.758Z,58.58
2019-02-18T01:22:31.951Z,58.62
2019-02-18T01:25:03.836Z,58.67
2019-02-18T01:27:33.957Z,58.64
2019-02-18T01:30:04.999Z,58.73
2019-02-18T01:32:35.153Z,59.08
2019-02-18T01:35:05.754Z,59.07
2019-02-18T01:37:45.238Z,59.17
2019-02-18T01:40:10.166Z,59.37
2019-02-18T01:42:40.301Z,59.44
2019-02-18T01:45:11.595Z,59.50
2019-02-18T01:47:41.697Z,59.57
2019-02-18T01:50:13.592Z,59.70
2019-02-18T01:52:43.747Z,59.82
2019-02-18T01:55:14.111Z,60.22
2019-02-18T01:57:44.295Z,60.44
2019-02-18T02:00:15.847Z,60.48
2019-02-18T02:02:46.030Z,60.62
2019-02-18T02:05:16.485Z,60.77
2019-02-18T02:07:55.700Z,61.12
2019-02-18T02:10:18.420Z,61.17
2019-02-18T02:12:48.555Z,61.08
2019-02-18T02:15:24.859Z,61.18
2019-02-18T02:17:56.105Z,61.22
2019-02-18T02:20:27.660Z,61.21
2019-02-18T02:22:57.885Z,61.45
2019-02-18T02:25:28.022Z,61.72
2019-02-18T02:27:58.222Z,61.69
2019-02-18T02:30:28.345Z,61.89
2019-02-18T02:32:58.922Z,62.13
2019-02-18T02:35:29.048Z,62.22
2019-02-18T02:38:07.237Z,62.13
2019-02-18T02:40:31.048Z,62.26
2019-02-18T02:43:01.235Z,62.30
2019-02-18T02:45:31.344Z,62.33
2019-02-18T02:48:01.492Z,62.56
2019-02-18T02:50:33.119Z,62.36
2019-02-18T02:53:03.322Z,62.45
2019-02-18T02:55:33.474Z,62.61
2019-02-18T02:58:03.631Z,62.65
2019-02-18T03:00:33.796Z,63.10
2019-02-18T03:03:04.310Z,62.94
2019-02-18T03:05:34.476Z,63.21
2019-02-18T03:08:04.648Z,63.34
2019-02-18T03:10:36.189Z,63.42
2019-02-18T03:13:06.348Z,63.43
2019-02-18T03:15:36.910Z,63.65
2019-02-18T03:18:07.044Z,63.50
2019-02-18T03:20:37.225Z,63.55
2019-02-18T03:23:07.312Z,63.77
2019-02-18T03:25:37.905Z,63.97
2019-02-18T03:28:31.902Z,63.93
2019-02-18T03:31:15.703Z,63.97
2019-02-18T03:33:50.171Z,64.23
2019-02-18T03:36:20.448Z,64.20
2019-02-18T03:38:50.606Z,64.22
2019-02-18T03:41:20.814Z,64.54
2019-02-18T03:43:50.986Z,64.54
2019-02-18T03:46:21.150Z,64.87
2019-02-18T03:48:51.310Z,64.84
2019-02-18T03:51:21.511Z,64.79
2019-02-18T03:53:51.998Z,64.72
2019-02-18T03:56:22.154Z,64.74
2019-02-18T03:58:54.162Z,65.02
2019-02-18T04:01:27.217Z,64.99
2019-02-18T04:04:01.962Z,65.08
2019-02-18T04:06:32.178Z,65.12
2019-02-18T04:09:02.318Z,65.46
2019-02-18T04:11:34.063Z,65.34
2019-02-18T04:14:04.223Z,65.49
2019-02-18T04:16:34.321Z,65.50
2019-02-18T04:19:04.528Z,65.53
2019-02-18T04:21:34.679Z,65.60
2019-02-18T04:24:04.831Z,65.64
2019-02-18T04:26:41.711Z,65.77
2019-02-18T04:29:11.940Z,65.74
2019-02-18T04:31:45.080Z,65.99
2019-02-18T04:34:17.426Z,65.97
2019-02-18T04:36:47.430Z,66.17
2019-02-18T04:39:17.643Z,66.06
2019-02-18T04:41:47.747Z,66.22
2019-02-18T04:44:17.922Z,66.63
2019-02-18T04:46:48.072Z,66.48
2019-02-18T04:49:18.424Z,66.46
2019-02-18T04:51:50.025Z,66.55
2019-02-18T04:54:20.756Z,66.62
2019-02-18T04:56:50.877Z,66.87
2019-02-18T04:59:21.133Z,66.63
2019-02-18T05:01:51.299Z,66.60
2019-02-18T05:04:23.194Z,66.91
2019-02-18T05:06:56.476Z,66.82
2019-02-18T05:09:26.713Z,66.60
2019-02-18T05:11:56.916Z,66.63
2019-02-18T05:14:27.266Z,66.52
2019-02-18T05:16:57.586Z,66.50
2019-02-18T05:19:29.865Z,66.43
2019-02-18T05:22:07.799Z,66.25
2019-02-18T05:24:40.333Z,66.01
2019-02-18T05:27:10.762Z,65.85
2019-02-18T05:29:40.963Z,65.81
2019-02-18T05:32:11.121Z,65.77
2019-02-18T05:34:42.598Z,65.50
2019-02-18T05:37:21.366Z,65.47
2019-02-18T05:39:51.441Z,65.28
2019-02-18T05:42:21.649Z,65.19
2019-02-18T05:44:51.948Z,65.10
2019-02-18T05:47:22.162Z,65.05
2019-02-18T05:49:54.278Z,64.97
2019-02-18T05:52:29.781Z,64.96
2019-02-18T05:54:59.962Z,65.06
2019-02-18T05:57:30.466Z,65.15
2019-02-18T06:00:00.650Z,64.92
2019-02-18T06:02:30.884Z,65.06
2019-02-18T06:05:01.262Z,65.29
2019-02-18T06:07:31.357Z,64.86
2019-02-18T06:10:01.526Z,64.78
2019-02-18T06:12:31.702Z,64.71
2019-02-18T06:15:01.924Z,64.47
2019-02-18T06:17:32.264Z,64.43
2019-02-18T06:20:02.434Z,64.48
2019-02-18T06:22:32.587Z,64.44
2019-02-18T06:25:04.456Z,64.38
2019-02-18T06:27:34.577Z,64.37
2019-02-18T06:30:05.529Z,64.56
2019-02-18T06:32:35.986Z,64.37
2019-02-18T06:35:06.319Z,64.48
2019-02-18T06:37:36.452Z,64.46
2019-02-18T06:40:07.386Z,64.29
2019-02-18T06:42:37.544Z,64.37
2019-02-18T06:45:35.756Z,64.35
2019-02-18T06:48:27.308Z,64.16
2019-02-18T06:50:57.508Z,64.16
2019-02-18T06:53:27.808Z,64.33
2019-02-18T06:56:01.503Z,64.15
2019-02-18T06:58:45.497Z,63.90
2019-02-18T07:01:38.761Z,63.86
2019-02-18T07:04:26.348Z,63.47
2019-02-18T07:07:33.855Z,63.60
2019-02-18T07:10:19.070Z,63.42
2019-02-18T07:12:52.559Z,63.29
2019-02-18T07:15:23.036Z,63.10
2019-02-18T07:17:53.176Z,62.93
2019-02-18T07:20:23.299Z,62.90
2019-02-18T07:22:56.275Z,62.66
2019-02-18T07:25:26.427Z,62.52
2019-02-18T07:27:56.666Z,62.31
2019-02-18T07:30:26.868Z,62.12
2019-02-18T07:32:57.063Z,61.97
2019-02-18T07:35:27.921Z,61.77
2019-02-18T07:37:58.117Z,61.53
2019-02-18T07:40:28.237Z,61.59
2019-02-18T07:42:58.686Z,61.35
2019-02-18T07:45:28.794Z,61.11
2019-02-18T07:47:59.295Z,60.93
2019-02-18T07:50:29.537Z,60.86
2019-02-18T07:52:59.680Z,60.71
2019-02-18T07:55:29.856Z,60.50
2019-02-18T07:58:00.429Z,60.58
2019-02-18T08:00:30.573Z,60.29
2019-02-18T08:03:00.732Z,60.08
2019-02-18T08:05:31.089Z,59.86
2019-02-18T08:08:01.305Z,59.72
2019-02-18T08:10:31.557Z,59.47
2019-02-18T08:13:01.721Z,59.38
2019-02-18T08:15:31.833Z,59.38
2019-02-18T08:18:01.972Z,59.19
2019-02-18T08:20:32.538Z,58.83
2019-02-18T08:23:04.363Z,58.48
2019-02-18T08:25:34.562Z,58.12
2019-02-18T08:28:04.723Z,57.98
2019-02-18T08:30:34.991Z,57.72
2019-02-18T08:33:06.483Z,57.47
2019-02-18T08:35:36.644Z,57.58
2019-02-18T08:38:06.773Z,57.02
2019-02-18T08:40:36.941Z,56.97
2019-02-18T08:43:07.189Z,56.81
2019-02-18T08:45:37.359Z,56.51
2019-02-18T08:48:07.471Z,56.45
2019-02-18T08:50:37.764Z,55.82
2019-02-18T08:53:08.051Z,55.25
2019-02-18T08:55:38.172Z,55.22
2019-02-18T08:58:08.283Z,54.95
2019-02-18T09:00:38.766Z,54.89
2019-02-18T09:03:08.976Z,54.73
2019-02-18T09:05:39.118Z,54.60
2019-02-18T09:08:09.251Z,54.38
2019-02-18T09:10:39.389Z,53.81
2019-02-18T09:13:09.481Z,53.76
2019-02-18T09:15:39.647Z,53.41
2019-02-18T09:18:09.796Z,53.27
2019-02-18T09:20:39.931Z,53.57
2019-02-18T09:23:32.087Z,52.99
2019-02-18T09:26:04.101Z,52.91
2019-02-18T09:28:34.270Z,52.88
2019-02-18T09:31:04.700Z,52.83
2019-02-18T09:33:36.100Z,52.56
2019-02-18T09:36:08.084Z,51.68
2019-02-18T09:38:38.283Z,52.05
2019-02-18T09:41:08.514Z,51.77
2019-02-18T09:43:40.714Z,51.57
2019-02-18T09:46:10.969Z,51.43
2019-02-18T09:48:41.276Z,51.42
2019-02-18T09:51:11.526Z,50.91
2019-02-18T09:53:41.980Z,50.66
2019-02-18T09:56:12.130Z,50.36
2019-02-18T09:58:42.404Z,50.26
2019-02-18T10:01:12.541Z,49.76
2019-02-18T10:03:42.618Z,49.13
2019-02-18T10:06:12.792Z,49.30
2019-02-18T10:08:42.914Z,49.12
2019-02-18T10:11:14.712Z,49.15
2019-02-18T10:13:44.832Z,49.36
2019-02-18T10:16:14.954Z,48.81
2019-02-18T10:18:45.212Z,48.78
2019-02-18T10:21:15.314Z,48.84
2019-02-18T10:23:45.403Z,48.77
2019-02-18T10:26:15.581Z,48.45
2019-02-18T10:28:46.508Z,48.43
2019-02-18T10:31:16.650Z,48.08
2019-02-18T10:33:47.242Z,48.39
2019-02-18T10:36:17.753Z,48.47
2019-02-18T10:38:47.932Z,48.40
2019-02-18T10:41:19.287Z,47.96
2019-02-18T10:43:49.638Z,47.46
2019-02-18T10:46:19.860Z,47.89
2019-02-18T10:48:50.054Z,48.28
2019-02-18T10:51:20.235Z,47.87
2019-02-18T10:53:50.398Z,47.55
2019-02-18T10:56:20.751Z,47.71
2019-02-18T10:58:51.026Z,47.33
2019-02-18T11:01:21.212Z,47.12
2019-02-18T11:03:51.854Z,46.55
2019-02-18T11:06:22.017Z,46.42
2019-02-18T11:08:52.139Z,46.53
2019-02-18T11:11:22.258Z,45.88
2019-02-18T11:13:52.425Z,45.80
2019-02-18T11:16:23.513Z,44.87
2019-02-18T11:18:54.019Z,45.30
2019-02-18T11:21:24.217Z,44.18
2019-02-18T11:23:54.355Z,44.19
2019-02-18T11:26:24.480Z,44.17
2019-02-18T11:28:54.661Z,44.52
2019-02-18T11:31:24.957Z,43.62
2019-02-18T11:33:56.453Z,43.99
2019-02-18T11:36:26.612Z,43.85
2019-02-18T11:38:57.097Z,43.25
2019-02-18T11:41:27.809Z,43.04
2019-02-18T11:43:58.080Z,43.04
2019-02-18T11:46:28.214Z,43.63
2019-02-18T11:48:58.435Z,43.58
2019-02-18T11:51:28.628Z,44.18
2019-02-18T11:53:58.753Z,44.14
2019-02-18T11:56:28.986Z,44.31
2019-02-18T11:58:59.253Z,43.99
2019-02-18T12:01:29.426Z,44.09
2019-02-18T12:03:59.645Z,43.74
2019-02-18T12:06:29.903Z,43.04
2019-02-18T12:09:00.073Z,43.32
2019-02-18T12:11:37.905Z,43.19
2019-02-18T12:14:04.258Z,42.75
2019-02-18T12:16:34.455Z,43.05
2019-02-18T12:19:04.642Z,42.59
2019-02-18T12:21:34.785Z,42.48
2019-02-18T12:24:04.984Z,42.44
2019-02-18T12:26:35.429Z,42.12
2019-02-18T12:29:05.677Z,42.18
2019-02-18T12:31:36.508Z,41.71
2019-02-18T12:34:06.795Z,41.65
2019-02-18T12:36:37.015Z,41.45
2019-02-18T12:39:12.692Z,41.32
2019-02-18T12:41:48.554Z,41.37
2019-02-18T12:44:27.651Z,41.21
2019-02-18T12:46:58.177Z,41.18
2019-02-18T12:49:28.862Z,41.44
2019-02-18T12:51:59.138Z,41.44
2019-02-18T12:54:29.402Z,41.63
2019-02-18T12:57:00.543Z,41.83
2019-02-18T12:59:31.250Z,41.92
2019-02-18T13:02:02.765Z,42.19
2019-02-18T13:04:33.442Z,41.59
2019-02-18T13:07:03.715Z,42.11
2019-02-18T13:09:33.973Z,42.12
2019-02-18T13:12:04.147Z,41.79
2019-02-18T13:14:34.375Z,41.42
2019-02-18T13:17:04.838Z,41.90
2019-02-18T13:19:35.190Z,41.30
2019-02-18T13:22:05.637Z,40.95
2019-02-18T13:24:36.788Z,40.98
2019-02-18T13:27:07.068Z,40.34
2019-02-18T13:29:37.323Z,40.66
2019-02-18T13:32:07.580Z,40.86
2019-02-18T13:34:37.895Z,41.04
2019-02-18T13:37:08.545Z,41.26
2019-02-18T13:39:38.893Z,41.29
2019-02-18T13:42:09.179Z,41.11
2019-02-18T13:44:39.520Z,40.93
2019-02-18T13:47:09.770Z,41.47
2019-02-18T13:49:42.117Z,41.08
2019-02-18T13:52:12.534Z,41.03
2019-02-18T13:54:42.861Z,41.45
2019-02-18T13:57:13.492Z,41.54
2019-02-18T13:59:43.948Z,41.49
2019-02-18T14:02:14.156Z,41.42
2019-02-18T14:04:47.346Z,41.55
2019-02-18T14:07:17.631Z,42.00
2019-02-18T14:09:47.796Z,41.94
2019-02-18T14:12:18.058Z,41.74
2019-02-18T14:14:48.282Z,42.09
2019-02-18T14:17:20.078Z,42.04
2019-02-18T14:19:50.179Z,42.45
2019-02-18T14:22:20.774Z,42.21
2019-02-18T14:24:51.021Z,42.56
2019-02-18T14:27:21.209Z,42.57
2019-02-18T14:29:52.322Z,42.09
2019-02-18T14:32:22.514Z,42.14
2019-02-18T14:34:52.619Z,42.63
2019-02-18T14:37:22.830Z,43.13
2019-02-18T14:39:52.980Z,43.36
2019-02-18T14:42:24.625Z,42.87
2019-02-18T14:44:54.942Z,43.10
2019-02-18T14:47:25.921Z,43.25
2019-02-18T14:49:56.298Z,43.57
2019-02-18T14:52:26.924Z,43.55
2019-02-18T14:54:57.088Z,43.57
2019-02-18T14:57:27.532Z,43.86
2019-02-18T14:59:57.888Z,43.63
2019-02-18T15:02:28.415Z,43.59
2019-02-18T15:04:58.584Z,43.35
2019-02-18T15:07:28.726Z,43.90
2019-02-18T15:09:59.254Z,43.60
2019-02-18T15:12:33.062Z,43.45
2019-02-18T15:15:01.256Z,43.55
2019-02-18T15:17:32.829Z,43.57
2019-02-18T15:20:03.256Z,43.89
2019-02-18T15:22:33.455Z,44.16
2019-02-18T15:25:03.779Z,43.69
2019-02-18T15:27:34.047Z,43.77
2019-02-18T15:30:05.939Z,43.91
2019-02-18T15:32:36.134Z,43.91
2019-02-18T15:35:06.479Z,44.04
2019-02-18T15:37:36.892Z,44.14
2019-02-18T15:40:08.181Z,43.72
2019-02-18T15:42:42.284Z,43.53
2019-02-18T15:45:10.529Z,43.99
2019-02-18T15:47:41.392Z,44.07
2019-02-18T15:50:12.387Z,44.23
2019-02-18T15:52:42.701Z,44.42
2019-02-18T15:55:13.177Z,44.86
2019-02-18T15:57:46.612Z,44.65
2019-02-18T16:00:18.947Z,44.71
2019-02-18T16:02:49.893Z,45.08
2019-02-18T16:05:20.039Z,45.17
2019-02-18T16:07:58.329Z,45.89
2019-02-18T16:10:35.833Z,46.55
2019-02-18T16:13:06.535Z,46.23
2019-02-18T16:15:37.719Z,46.45
2019-02-18T16:18:08.383Z,46.50
2019-02-18T16:20:40.106Z,47.55
2019-02-18T16:23:10.874Z,47.32
2019-02-18T16:25:41.341Z,47.25
2019-02-18T16:28:29.233Z,47.76
2019-02-18T16:30:59.561Z,47.61
2019-02-18T16:33:30.905Z,48.18
2019-02-18T16:36:01.248Z,48.85
2019-02-18T16:38:35.101Z,50.06
2019-02-18T16:41:09.686Z,49.62
2019-02-18T16:43:40.052Z,49.45
2019-02-18T16:46:10.559Z,49.46
2019-02-18T16:48:41.597Z,49.71
2019-02-18T16:51:20.832Z,50.27
2019-02-18T16:53:55.836Z,50.50
2019-02-18T16:56:26.651Z,50.35
2019-02-18T16:58:57.486Z,51.01
2019-02-18T17:01:31.743Z,51.20
2019-02-18T17:04:02.015Z,51.45
2019-02-18T17:06:32.239Z,51.53
2019-02-18T17:09:02.387Z,51.85
2019-02-18T17:11:34.178Z,52.08
2019-02-18T17:14:05.442Z,52.50
2019-02-18T17:16:36.682Z,52.72
2019-02-18T17:19:07.998Z,52.91
2019-02-18T17:21:38.236Z,53.03
2019-02-18T17:24:08.734Z,52.99
2019-02-18T17:26:41.354Z,53.07
2019-02-18T17:29:11.844Z,53.19
2019-02-18T17:31:42.136Z,53.62
2019-02-18T17:34:12.559Z,53.89
2019-02-18T17:36:42.804Z,54.38
2019-02-18T17:39:13.044Z,54.30
2019-02-18T17:41:43.212Z,54.26
2019-02-18T17:44:19.966Z,54.32
2019-02-18T17:46:45.375Z,54.31
2019-02-18T17:49:18.040Z,54.41
2019-02-18T17:51:49.752Z,55.14
2019-02-18T17:54:20.290Z,55.33
2019-02-18T17:56:50.554Z,55.59
2019-02-18T17:59:20.777Z,55.97
2019-02-18T18:01:51.068Z,56.54
2019-02-18T18:04:21.326Z,56.37
2019-02-18T18:06:56.993Z,57.06
2019-02-18T18:09:29.762Z,56.79
2019-02-18T18:12:00.148Z,57.03
2019-02-18T18:14:30.602Z,57.13
2019-02-18T18:17:00.800Z,57.09
2019-02-18T18:19:31.509Z,57.00
2019-02-18T18:22:02.118Z,57.07
2019-02-18T18:24:33.978Z,57.21
2019-02-18T18:27:04.179Z,57.33
2019-02-18T18:29:36.040Z,57.28
2019-02-18T18:32:06.750Z,57.31
2019-02-18T18:34:37.911Z,57.19
2019-02-18T18:37:08.139Z,57.63
2019-02-18T18:40:00.413Z,57.60
2019-02-18T18:42:32.417Z,57.54
2019-02-18T18:45:02.718Z,57.78
2019-02-18T18:47:33.068Z,57.78
2019-02-18T18:50:03.303Z,57.87
2019-02-18T18:52:33.517Z,57.53
2019-02-18T18:55:04.005Z,57.36
2019-02-18T18:57:34.212Z,56.96
2019-02-18T19:00:05.305Z,56.71
2019-02-18T19:02:37.049Z,55.88
2019-02-18T19:05:07.664Z,55.75
2019-02-18T19:07:38.315Z,55.44
2019-02-18T19:10:08.911Z,55.11
2019-02-18T19:12:39.146Z,54.54
2019-02-18T19:15:10.233Z,54.05
2019-02-18T19:17:40.568Z,53.46
2019-02-18T19:20:14.899Z,53.49
2019-02-18T19:22:47.106Z,53.28
2019-02-18T19:25:17.371Z,53.01
2019-02-18T19:27:47.579Z,53.01
2019-02-18T19:30:20.580Z,52.95
2019-02-18T19:32:51.313Z,53.01
2019-02-18T19:35:21.491Z,52.72
2019-02-18T19:37:53.562Z,52.80
2019-02-18T19:40:23.837Z,52.55
2019-02-18T19:42:54.290Z,52.01
2019-02-18T19:45:24.964Z,51.56
2019-02-18T19:47:55.210Z,51.38
2019-02-18T19:50:25.419Z,51.19
2019-02-18T19:52:58.237Z,50.41
2019-02-18T19:55:30.060Z,50.63
2019-02-18T19:58:00.720Z,50.20
2019-02-18T20:00:31.321Z,50.37
2019-02-18T20:03:01.593Z,50.48
2019-02-18T20:05:33.066Z,50.48
2019-02-18T20:08:03.711Z,50.16
2019-02-18T20:10:34.319Z,50.48
2019-02-18T20:13:04.471Z,50.20
2019-02-18T20:15:37.326Z,49.96
2019-02-18T20:18:07.550Z,49.80
2019-02-18T20:20:37.845Z,50.15
2019-02-18T20:23:09.807Z,50.25
2019-02-18T20:25:40.034Z,50.27
2019-02-18T20:28:11.994Z,50.25
2019-02-18T20:30:42.313Z,50.41
2019-02-18T20:33:12.773Z,50.47
2019-02-18T20:35:47.120Z,50.57
2019-02-18T20:38:20.165Z,50.34
2019-02-18T20:40:50.576Z,50.49
2019-02-18T20:43:20.967Z,50.63
2019-02-18T20:45:52.165Z,50.70
2019-02-18T20:48:22.419Z,51.07
2019-02-18T20:50:52.765Z,51.29
2019-02-18T20:53:23.034Z,51.36
2019-02-18T20:55:53.651Z,51.54
2019-02-18T20:58:25.201Z,51.53
2019-02-18T21:00:55.689Z,51.29
2019-02-18T21:03:27.037Z,51.51
2019-02-18T21:05:59.855Z,51.28
2019-02-18T21:08:30.137Z,51.15
2019-02-18T21:11:02.870Z,51.37
2019-02-18T21:13:33.162Z,51.43
2019-02-18T21:16:06.647Z,51.58
2019-02-18T21:18:40.333Z,51.73
2019-02-18T21:21:10.660Z,51.69
2019-02-18T21:23:41.300Z,51.73
2019-02-18T21:26:12.483Z,52.50
2019-02-18T21:28:46.439Z,52.38
2019-02-18T21:31:18.940Z,51.77
2019-02-18T21:33:49.275Z,52.35
2019-02-18T21:36:20.149Z,52.87
2019-02-18T21:38:50.696Z,52.73
2019-02-18T21:41:21.258Z,53.05
2019-02-18T21:43:51.633Z,52.86
2019-02-18T21:46:21.828Z,53.36
2019-02-18T21:48:52.062Z,53.55
2019-02-18T21:51:23.404Z,53.33
2019-02-18T21:53:53.780Z,53.63
2019-02-18T21:56:25.249Z,53.93
2019-02-18T21:58:57.167Z,53.77
2019-02-18T22:01:29.181Z,53.66
2019-02-18T22:03:59.511Z,53.89
2019-02-18T22:06:33.231Z,53.98
2019-02-18T22:09:04.448Z,54.13
2019-02-18T22:11:36.424Z,54.32
2019-02-18T22:14:06.607Z,54.37
2019-02-18T22:16:36.824Z,54.44
2019-02-18T22:19:07.272Z,54.61
2019-02-18T22:21:37.428Z,54.54
2019-02-18T22:24:07.592Z,54.91
2019-02-18T22:26:37.716Z,55.00
2019-02-18T22:29:07.894Z,55.03
2019-02-18T22:31:38.078Z,55.24
2019-02-18T22:34:08.399Z,55.34
2019-02-18T22:36:38.490Z,55.58
2019-02-18T22:39:09.648Z,55.66
2019-02-18T22:41:39.928Z,55.79
2019-02-18T22:44:10.074Z,55.86
2019-02-18T22:46:40.236Z,56.11
2019-02-18T22:49:10.542Z,55.96
2019-02-18T22:51:40.697Z,56.14
2019-02-18T22:54:10.857Z,56.00
2019-02-18T22:56:41.046Z,56.19
2019-02-18T22:59:11.198Z,56.10
2019-02-18T23:01:42.560Z,56.31
2019-02-18T23:04:12.812Z,56.40
2019-02-18T23:06:42.958Z,56.36
2019-02-18T23:09:14.614Z,56.49
2019-02-18T23:11:45.163Z,56.51
2019-02-18T23:14:15.290Z,56.49
2019-02-18T23:16:45.775Z,56.44
2019-02-18T23:19:15.924Z,56.63
2019-02-18T23:21:45.946Z,56.71
2019-02-18T23:24:17.112Z,56.83
2019-02-18T23:26:47.270Z,56.85
2019-02-18T23:29:17.554Z,57.04
2019-02-18T23:31:48.072Z,56.87
2019-02-18T23:34:18.211Z,57.15
2019-02-18T23:36:48.413Z,56.97
2019-02-18T23:39:18.585Z,57.00
2019-02-18T23:41:48.725Z,57.06
2019-02-18T23:44:18.980Z,57.04
2019-02-18T23:46:49.195Z,56.83
2019-02-18T23:49:19.619Z,56.82
2019-02-18T23:51:49.829Z,56.88
2019-02-18T23:54:20.231Z,56.78
2019-02-18T23:56:51.216Z,56.66
2019-02-18T23:59:21.395Z,56.71
